sensor_id;sensor_type;location;lat;lon;timestamp;temperature;humidity
40828;DHT22;26549;50.918;5.338;2022-08-01T00:01:41;22.60;99.90
40828;DHT22;26549;50.918;5.338;2022-08-01T00:04:07;22.60;99.90
40828;DHT22;26549;50.918;5.338;2022-08-01T00:06:33;22.50;99.90
40828;DHT22;26549;50.918;5.338;2022-08-01T00:08:58;22.50;99.90
40828;DHT22;26549;50.918;5.338;2022-08-01T00:11:24;22.50;99.90
40828;DHT22;26549;50.918;5.338;2022-08-01T00:13:50;22.60;99.90
40828;DHT22;26549;50.918;5.338;2022-08-01T00:16:16;22.60;99.90
40828;DHT22;26549;50.918;5.338;2022-08-01T00:18:43;22.50;99.90
40828;DHT22;26549;50.918;5.338;2022-08-01T00:21:09;22.60;99.90
40828;DHT22;26549;50.918;5.338;2022-08-01T00:23:34;22.50;99.90
40828;DHT22;26549;50.918;5.338;2022-08-01T00:26:00;22.50;99.90
40828;DHT22;26549;50.918;5.338;2022-08-01T00:28:26;22.40;99.90
40828;DHT22;26549;50.918;5.338;2022-08-01T00:30:52;22.30;99.90
40828;DHT22;26549;50.918;5.338;2022-08-01T00:33:18;22.30;99.90
40828;DHT22;26549;50.918;5.338;2022-08-01T00:35:44;22.30;99.90
40828;DHT22;26549;50.918;5.338;2022-08-01T00:38:09;22.30;99.90
40828;DHT22;26549;50.918;5.338;2022-08-01T00:40:36;22.40;99.90
40828;DHT22;26549;50.918;5.338;2022-08-01T00:43:02;22.40;99.90
40828;DHT22;26549;50.918;5.338;2022-08-01T00:45:29;22.40;99.90
40828;DHT22;26549;50.918;5.338;2022-08-01T00:47:55;22.40;99.90
40828;DHT22;26549;50.918;5.338;2022-08-01T00:50:21;22.50;99.90
40828;DHT22;26549;50.918;5.338;2022-08-01T00:52:47;22.50;99.90
40828;DHT22;26549;50.918;5.338;2022-08-01T00:55:13;22.60;99.90
40828;DHT22;26549;50.918;5.338;2022-08-01T00:57:39;22.60;99.90
40828;DHT22;26549;50.918;5.338;2022-08-01T01:00:06;22.50;99.90
40828;DHT22;26549;50.918;5.338;2022-08-01T01:02:33;22.50;99.90
40828;DHT22;26549;50.918;5.338;2022-08-01T01:05:00;22.50;99.90
40828;DHT22;26549;50.918;5.338;2022-08-01T01:07:34;22.50;99.90
40828;DHT22;26549;50.918;5.338;2022-08-01T01:10:16;22.30;99.90
40828;DHT22;26549;50.918;5.338;2022-08-01T01:12:52;22.40;99.90
40828;DHT22;26549;50.918;5.338;2022-08-01T01:15:26;22.40;99.90
40828;DHT22;26549;50.918;5.338;2022-08-01T01:18:00;22.50;99.90
40828;DHT22;26549;50.918;5.338;2022-08-01T01:20:31;22.40;99.90
40828;DHT22;26549;50.918;5.338;2022-08-01T01:29:11;22.30;99.90
40828;DHT22;26549;50.918;5.338;2022-08-01T01:31:46;22.20;99.90
40828;DHT22;26549;50.918;5.338;2022-08-01T01:34:17;22.30;99.90
40828;DHT22;26549;50.918;5.338;2022-08-01T01:36:46;22.20;99.90
40828;DHT22;26549;50.918;5.338;2022-08-01T01:39:13;22.20;99.90
40828;DHT22;26549;50.918;5.338;2022-08-01T01:41:41;22.20;99.90
40828;DHT22;26549;50.918;5.338;2022-08-01T01:44:12;22.30;99.90
40828;DHT22;26549;50.918;5.338;2022-08-01T01:46:39;22.30;99.90
40828;DHT22;26549;50.918;5.338;2022-08-01T01:49:07;22.20;99.90
40828;DHT22;26549;50.918;5.338;2022-08-01T01:51:37;22.30;99.90
40828;DHT22;26549;50.918;5.338;2022-08-01T01:54:05;22.30;99.90
40828;DHT22;26549;50.918;5.338;2022-08-01T01:56:32;22.30;99.90
40828;DHT22;26549;50.918;5.338;2022-08-01T01:59:01;22.20;99.90
40828;DHT22;26549;50.918;5.338;2022-08-01T02:01:30;22.20;99.90
40828;DHT22;26549;50.918;5.338;2022-08-01T02:03:57;22.20;99.90
40828;DHT22;26549;50.918;5.338;2022-08-01T02:06:25;22.10;99.90
40828;DHT22;26549;50.918;5.338;2022-08-01T02:08:53;22.00;99.90
40828;DHT22;26549;50.918;5.338;2022-08-01T02:11:20;22.10;99.90
40828;DHT22;26549;50.918;5.338;2022-08-01T02:14:02;22.20;99.90
40828;DHT22;26549;50.918;5.338;2022-08-01T02:16:34;22.20;99.90
40828;DHT22;26549;50.918;5.338;2022-08-01T02:19:00;22.20;99.90
40828;DHT22;26549;50.918;5.338;2022-08-01T02:21:56;22.20;99.90
40828;DHT22;26549;50.918;5.338;2022-08-01T02:24:39;22.20;99.90
40828;DHT22;26549;50.918;5.338;2022-08-01T02:27:09;22.10;99.90
40828;DHT22;26549;50.918;5.338;2022-08-01T02:29:47;22.10;99.90
40828;DHT22;26549;50.918;5.338;2022-08-01T02:32:20;22.00;99.90
40828;DHT22;26549;50.918;5.338;2022-08-01T02:34:49;22.10;99.90
40828;DHT22;26549;50.918;5.338;2022-08-01T02:37:17;22.10;99.90
40828;DHT22;26549;50.918;5.338;2022-08-01T02:39:47;22.20;99.90
40828;DHT22;26549;50.918;5.338;2022-08-01T02:42:14;22.10;99.90
40828;DHT22;26549;50.918;5.338;2022-08-01T02:44:43;22.10;99.90
40828;DHT22;26549;50.918;5.338;2022-08-01T02:47:12;22.10;99.90
40828;DHT22;26549;50.918;5.338;2022-08-01T02:49:45;22.20;99.90
40828;DHT22;26549;50.918;5.338;2022-08-01T02:52:15;22.10;99.90
40828;DHT22;26549;50.918;5.338;2022-08-01T02:54:44;22.10;99.90
40828;DHT22;26549;50.918;5.338;2022-08-01T02:57:13;22.00;99.90
40828;DHT22;26549;50.918;5.338;2022-08-01T02:59:40;22.10;99.90
40828;DHT22;26549;50.918;5.338;2022-08-01T03:02:07;22.20;99.90
40828;DHT22;26549;50.918;5.338;2022-08-01T03:04:35;22.20;99.90
40828;DHT22;26549;50.918;5.338;2022-08-01T03:07:04;22.10;99.90
40828;DHT22;26549;50.918;5.338;2022-08-01T03:09:34;22.10;99.90
40828;DHT22;26549;50.918;5.338;2022-08-01T03:12:02;22.10;99.90
40828;DHT22;26549;50.918;5.338;2022-08-01T03:14:32;22.00;99.90
40828;DHT22;26549;50.918;5.338;2022-08-01T03:16:59;22.00;99.90
40828;DHT22;26549;50.918;5.338;2022-08-01T03:19:27;22.00;99.90
40828;DHT22;26549;50.918;5.338;2022-08-01T03:21:55;21.80;99.90
40828;DHT22;26549;50.918;5.338;2022-08-01T03:24:27;21.90;99.90
40828;DHT22;26549;50.918;5.338;2022-08-01T03:26:56;21.90;99.90
40828;DHT22;26549;50.918;5.338;2022-08-01T03:29:27;22.00;99.90
40828;DHT22;26549;50.918;5.338;2022-08-01T03:31:56;22.10;99.90
40828;DHT22;26549;50.918;5.338;2022-08-01T03:34:23;22.10;99.90
40828;DHT22;26549;50.918;5.338;2022-08-01T03:37:07;22.10;99.90
40828;DHT22;26549;50.918;5.338;2022-08-01T03:39:42;22.00;99.90
40828;DHT22;26549;50.918;5.338;2022-08-01T03:42:12;22.00;99.90
40828;DHT22;26549;50.918;5.338;2022-08-01T03:44:39;22.00;99.90
40828;DHT22;26549;50.918;5.338;2022-08-01T03:47:08;22.10;99.90
40828;DHT22;26549;50.918;5.338;2022-08-01T03:49:43;22.10;99.90
40828;DHT22;26549;50.918;5.338;2022-08-01T03:52:10;22.10;99.90
40828;DHT22;26549;50.918;5.338;2022-08-01T03:54:41;22.10;99.90
40828;DHT22;26549;50.918;5.338;2022-08-01T03:57:09;22.10;99.90
40828;DHT22;26549;50.918;5.338;2022-08-01T03:59:35;22.20;99.90
40828;DHT22;26549;50.918;5.338;2022-08-01T04:02:02;22.00;99.90
40828;DHT22;26549;50.918;5.338;2022-08-01T04:04:30;22.00;99.90
40828;DHT22;26549;50.918;5.338;2022-08-01T04:06:56;22.10;99.90
40828;DHT22;26549;50.918;5.338;2022-08-01T04:09:22;22.00;99.90
40828;DHT22;26549;50.918;5.338;2022-08-01T04:11:48;22.00;99.90
40828;DHT22;26549;50.918;5.338;2022-08-01T04:14:14;22.00;99.90
40828;DHT22;26549;50.918;5.338;2022-08-01T04:16:40;22.00;99.90
40828;DHT22;26549;50.918;5.338;2022-08-01T04:19:06;22.00;99.90
40828;DHT22;26549;50.918;5.338;2022-08-01T04:21:34;22.00;99.90
40828;DHT22;26549;50.918;5.338;2022-08-01T04:24:09;21.90;99.90
40828;DHT22;26549;50.918;5.338;2022-08-01T04:26:36;21.90;99.90
40828;DHT22;26549;50.918;5.338;2022-08-01T04:29:04;21.90;99.90
40828;DHT22;26549;50.918;5.338;2022-08-01T04:31:31;21.90;99.90
40828;DHT22;26549;50.918;5.338;2022-08-01T04:33:59;21.90;99.90
40828;DHT22;26549;50.918;5.338;2022-08-01T04:36:27;21.90;99.90
40828;DHT22;26549;50.918;5.338;2022-08-01T04:39:00;22.00;99.90
40828;DHT22;26549;50.918;5.338;2022-08-01T04:41:26;22.00;99.90
40828;DHT22;26549;50.918;5.338;2022-08-01T04:43:52;22.00;99.90
40828;DHT22;26549;50.918;5.338;2022-08-01T04:46:20;22.00;99.90
40828;DHT22;26549;50.918;5.338;2022-08-01T04:48:46;22.00;99.90
40828;DHT22;26549;50.918;5.338;2022-08-01T04:51:15;21.90;99.90
40828;DHT22;26549;50.918;5.338;2022-08-01T04:53:43;21.90;99.90
40828;DHT22;26549;50.918;5.338;2022-08-01T04:56:09;22.00;99.90
40828;DHT22;26549;50.918;5.338;2022-08-01T04:58:35;22.00;99.90
40828;DHT22;26549;50.918;5.338;2022-08-01T05:01:01;21.90;99.90
40828;DHT22;26549;50.918;5.338;2022-08-01T05:03:27;21.90;99.90
40828;DHT22;26549;50.918;5.338;2022-08-01T05:05:53;21.90;99.90
40828;DHT22;26549;50.918;5.338;2022-08-01T05:08:19;21.90;99.90
40828;DHT22;26549;50.918;5.338;2022-08-01T05:10:44;21.90;99.90
40828;DHT22;26549;50.918;5.338;2022-08-01T05:13:10;21.90;99.90
40828;DHT22;26549;50.918;5.338;2022-08-01T05:15:36;21.90;99.90
40828;DHT22;26549;50.918;5.338;2022-08-01T05:18:02;21.80;99.90
40828;DHT22;26549;50.918;5.338;2022-08-01T05:20:28;21.80;99.90
40828;DHT22;26549;50.918;5.338;2022-08-01T05:22:55;21.90;99.90
40828;DHT22;26549;50.918;5.338;2022-08-01T05:25:22;21.70;99.90
40828;DHT22;26549;50.918;5.338;2022-08-01T05:27:49;21.70;99.90
40828;DHT22;26549;50.918;5.338;2022-08-01T05:30:16;21.80;99.90
40828;DHT22;26549;50.918;5.338;2022-08-01T05:32:42;21.80;99.90
40828;DHT22;26549;50.918;5.338;2022-08-01T05:35:09;21.80;99.90
40828;DHT22;26549;50.918;5.338;2022-08-01T05:37:35;21.80;99.90
40828;DHT22;26549;50.918;5.338;2022-08-01T05:40:01;21.80;99.90
40828;DHT22;26549;50.918;5.338;2022-08-01T05:42:27;21.80;99.90
40828;DHT22;26549;50.918;5.338;2022-08-01T05:44:53;21.70;99.90
40828;DHT22;26549;50.918;5.338;2022-08-01T05:47:19;21.50;99.90
40828;DHT22;26549;50.918;5.338;2022-08-01T05:49:45;21.20;99.90
40828;DHT22;26549;50.918;5.338;2022-08-01T05:52:11;21.20;99.90
40828;DHT22;26549;50.918;5.338;2022-08-01T05:54:37;20.70;99.90
40828;DHT22;26549;50.918;5.338;2022-08-01T05:57:03;20.60;99.90
40828;DHT22;26549;50.918;5.338;2022-08-01T05:59:32;20.40;99.90
40828;DHT22;26549;50.918;5.338;2022-08-01T06:01:58;20.60;99.90
40828;DHT22;26549;50.918;5.338;2022-08-01T06:04:24;20.50;99.90
40828;DHT22;26549;50.918;5.338;2022-08-01T06:06:52;20.50;99.90
40828;DHT22;26549;50.918;5.338;2022-08-01T06:09:18;20.50;99.90
40828;DHT22;26549;50.918;5.338;2022-08-01T06:11:43;20.70;99.90
40828;DHT22;26549;50.918;5.338;2022-08-01T06:14:09;20.90;99.90
40828;DHT22;26549;50.918;5.338;2022-08-01T06:16:37;21.00;99.90
40828;DHT22;26549;50.918;5.338;2022-08-01T06:19:06;21.10;99.90
40828;DHT22;26549;50.918;5.338;2022-08-01T06:21:34;21.20;99.90
40828;DHT22;26549;50.918;5.338;2022-08-01T06:23:59;21.40;99.90
40828;DHT22;26549;50.918;5.338;2022-08-01T06:26:25;21.50;99.90
40828;DHT22;26549;50.918;5.338;2022-08-01T06:28:52;21.50;99.90
40828;DHT22;26549;50.918;5.338;2022-08-01T06:31:18;21.50;99.90
40828;DHT22;26549;50.918;5.338;2022-08-01T06:33:44;21.70;99.90
40828;DHT22;26549;50.918;5.338;2022-08-01T06:36:12;21.80;99.90
40828;DHT22;26549;50.918;5.338;2022-08-01T06:38:38;21.90;99.90
40828;DHT22;26549;50.918;5.338;2022-08-01T06:41:04;21.80;99.90
40828;DHT22;26549;50.918;5.338;2022-08-01T06:43:31;21.80;99.90
40828;DHT22;26549;50.918;5.338;2022-08-01T06:45:56;21.90;99.90
40828;DHT22;26549;50.918;5.338;2022-08-01T06:48:22;21.90;99.90
40828;DHT22;26549;50.918;5.338;2022-08-01T06:50:48;22.10;99.90
40828;DHT22;26549;50.918;5.338;2022-08-01T06:53:14;22.20;99.90
40828;DHT22;26549;50.918;5.338;2022-08-01T06:55:40;22.00;99.90
40828;DHT22;26549;50.918;5.338;2022-08-01T06:58:06;21.90;99.90
40828;DHT22;26549;50.918;5.338;2022-08-01T07:00:31;21.90;99.90
40828;DHT22;26549;50.918;5.338;2022-08-01T07:02:58;21.90;99.90
40828;DHT22;26549;50.918;5.338;2022-08-01T07:05:24;22.00;99.90
40828;DHT22;26549;50.918;5.338;2022-08-01T07:07:51;22.00;99.90
40828;DHT22;26549;50.918;5.338;2022-08-01T07:10:17;22.10;99.90
40828;DHT22;26549;50.918;5.338;2022-08-01T07:12:43;22.10;99.90
40828;DHT22;26549;50.918;5.338;2022-08-01T07:15:10;22.30;99.90
40828;DHT22;26549;50.918;5.338;2022-08-01T07:17:40;22.40;99.90
40828;DHT22;26549;50.918;5.338;2022-08-01T07:20:08;22.50;99.90
40828;DHT22;26549;50.918;5.338;2022-08-01T07:22:34;22.50;99.90
40828;DHT22;26549;50.918;5.338;2022-08-01T07:25:00;22.60;99.90
40828;DHT22;26549;50.918;5.338;2022-08-01T07:27:25;22.60;99.90
40828;DHT22;26549;50.918;5.338;2022-08-01T07:29:51;22.50;99.90
40828;DHT22;26549;50.918;5.338;2022-08-01T07:32:17;22.60;99.90
40828;DHT22;26549;50.918;5.338;2022-08-01T07:34:43;22.70;99.90
40828;DHT22;26549;50.918;5.338;2022-08-01T07:37:09;22.80;99.90
40828;DHT22;26549;50.918;5.338;2022-08-01T07:39:35;22.80;99.90
40828;DHT22;26549;50.918;5.338;2022-08-01T07:42:01;22.90;99.90
40828;DHT22;26549;50.918;5.338;2022-08-01T07:44:28;23.00;99.90
40828;DHT22;26549;50.918;5.338;2022-08-01T07:46:53;23.10;99.90
40828;DHT22;26549;50.918;5.338;2022-08-01T07:49:19;23.10;99.90
40828;DHT22;26549;50.918;5.338;2022-08-01T07:51:47;23.30;99.90
40828;DHT22;26549;50.918;5.338;2022-08-01T07:54:13;23.30;99.90
40828;DHT22;26549;50.918;5.338;2022-08-01T07:56:38;23.40;99.90
40828;DHT22;26549;50.918;5.338;2022-08-01T07:59:04;23.30;99.90
40828;DHT22;26549;50.918;5.338;2022-08-01T08:01:30;23.10;99.90
40828;DHT22;26549;50.918;5.338;2022-08-01T08:03:56;23.10;99.90
40828;DHT22;26549;50.918;5.338;2022-08-01T08:06:22;23.20;99.90
40828;DHT22;26549;50.918;5.338;2022-08-01T08:08:48;23.20;99.90
40828;DHT22;26549;50.918;5.338;2022-08-01T08:11:14;23.20;99.90
40828;DHT22;26549;50.918;5.338;2022-08-01T08:13:40;23.20;99.90
40828;DHT22;26549;50.918;5.338;2022-08-01T08:16:06;23.30;99.90
40828;DHT22;26549;50.918;5.338;2022-08-01T08:18:31;23.40;99.90
40828;DHT22;26549;50.918;5.338;2022-08-01T08:20:57;23.50;99.90
40828;DHT22;26549;50.918;5.338;2022-08-01T08:23:23;23.40;99.90
40828;DHT22;26549;50.918;5.338;2022-08-01T08:26:07;23.40;99.90
40828;DHT22;26549;50.918;5.338;2022-08-01T08:28:32;23.50;99.90
40828;DHT22;26549;50.918;5.338;2022-08-01T08:30:58;23.40;99.90
40828;DHT22;26549;50.918;5.338;2022-08-01T08:33:24;23.40;99.90
40828;DHT22;26549;50.918;5.338;2022-08-01T08:35:50;23.50;99.90
40828;DHT22;26549;50.918;5.338;2022-08-01T08:38:15;23.50;99.90
40828;DHT22;26549;50.918;5.338;2022-08-01T08:40:42;23.60;99.90
40828;DHT22;26549;50.918;5.338;2022-08-01T08:43:08;23.70;99.90
40828;DHT22;26549;50.918;5.338;2022-08-01T08:45:35;23.50;99.90
40828;DHT22;26549;50.918;5.338;2022-08-01T08:48:01;23.50;99.90
40828;DHT22;26549;50.918;5.338;2022-08-01T08:50:28;23.70;99.90
40828;DHT22;26549;50.918;5.338;2022-08-01T08:52:55;23.80;99.90
40828;DHT22;26549;50.918;5.338;2022-08-01T08:55:22;24.00;99.90
40828;DHT22;26549;50.918;5.338;2022-08-01T08:57:48;23.90;99.90
40828;DHT22;26549;50.918;5.338;2022-08-01T09:00:15;23.80;99.30
40828;DHT22;26549;50.918;5.338;2022-08-01T09:02:42;23.80;99.60
40828;DHT22;26549;50.918;5.338;2022-08-01T09:05:09;24.00;99.40
40828;DHT22;26549;50.918;5.338;2022-08-01T09:07:35;24.10;98.40
40828;DHT22;26549;50.918;5.338;2022-08-01T09:10:01;24.30;98.00
40828;DHT22;26549;50.918;5.338;2022-08-01T09:12:27;24.40;97.70
40828;DHT22;26549;50.918;5.338;2022-08-01T09:14:53;24.50;98.00
40828;DHT22;26549;50.918;5.338;2022-08-01T09:17:19;24.70;97.70
40828;DHT22;26549;50.918;5.338;2022-08-01T09:19:53;24.60;97.50
40828;DHT22;26549;50.918;5.338;2022-08-01T09:22:22;24.50;97.50
40828;DHT22;26549;50.918;5.338;2022-08-01T09:25:08;24.60;97.20
40828;DHT22;26549;50.918;5.338;2022-08-01T09:27:39;24.80;97.40
40828;DHT22;26549;50.918;5.338;2022-08-01T09:30:16;24.90;97.30
40828;DHT22;26549;50.918;5.338;2022-08-01T09:32:57;24.80;97.20
40828;DHT22;26549;50.918;5.338;2022-08-01T09:35:30;24.60;97.10
40828;DHT22;26549;50.918;5.338;2022-08-01T09:40:59;24.50;97.30
40828;DHT22;26549;50.918;5.338;2022-08-01T09:43:30;24.30;97.20
40828;DHT22;26549;50.918;5.338;2022-08-01T09:45:56;24.50;97.20
40828;DHT22;26549;50.918;5.338;2022-08-01T09:48:23;24.70;97.30
40828;DHT22;26549;50.918;5.338;2022-08-01T09:50:52;24.80;96.60
40828;DHT22;26549;50.918;5.338;2022-08-01T09:53:19;24.70;96.60
40828;DHT22;26549;50.918;5.338;2022-08-01T09:55:45;24.90;96.00
40828;DHT22;26549;50.918;5.338;2022-08-01T09:58:14;25.00;96.20
40828;DHT22;26549;50.918;5.338;2022-08-01T10:00:40;24.90;96.70
40828;DHT22;26549;50.918;5.338;2022-08-01T10:03:23;24.90;96.80
40828;DHT22;26549;50.918;5.338;2022-08-01T10:05:52;24.50;97.30
40828;DHT22;26549;50.918;5.338;2022-08-01T10:08:19;24.70;97.00
40828;DHT22;26549;50.918;5.338;2022-08-01T10:11:12;24.90;96.20
40828;DHT22;26549;50.918;5.338;2022-08-01T10:13:40;24.80;96.30
40828;DHT22;26549;50.918;5.338;2022-08-01T10:16:09;24.90;96.40
40828;DHT22;26549;50.918;5.338;2022-08-01T10:18:38;24.80;96.70
40828;DHT22;26549;50.918;5.338;2022-08-01T10:21:10;25.00;96.50
40828;DHT22;26549;50.918;5.338;2022-08-01T10:23:38;25.00;97.00
40828;DHT22;26549;50.918;5.338;2022-08-01T10:26:17;25.00;96.70
40828;DHT22;26549;50.918;5.338;2022-08-01T10:28:48;25.20;96.00
40828;DHT22;26549;50.918;5.338;2022-08-01T10:31:18;25.30;96.10
40828;DHT22;26549;50.918;5.338;2022-08-01T10:33:48;25.50;95.50
40828;DHT22;26549;50.918;5.338;2022-08-01T10:36:19;25.30;96.00
40828;DHT22;26549;50.918;5.338;2022-08-01T10:38:47;25.50;96.00
40828;DHT22;26549;50.918;5.338;2022-08-01T10:41:15;25.60;95.70
40828;DHT22;26549;50.918;5.338;2022-08-01T10:43:43;25.40;96.20
40828;DHT22;26549;50.918;5.338;2022-08-01T10:46:16;25.60;96.30
40828;DHT22;26549;50.918;5.338;2022-08-01T10:49:00;25.60;96.20
40828;DHT22;26549;50.918;5.338;2022-08-01T10:51:31;25.60;96.10
40828;DHT22;26549;50.918;5.338;2022-08-01T10:54:05;25.80;95.80
40828;DHT22;26549;50.918;5.338;2022-08-01T10:56:53;25.80;95.10
40828;DHT22;26549;50.918;5.338;2022-08-01T10:59:22;25.70;95.50
40828;DHT22;26549;50.918;5.338;2022-08-01T11:02:02;25.80;94.60
40828;DHT22;26549;50.918;5.338;2022-08-01T11:07:18;26.00;94.80
40828;DHT22;26549;50.918;5.338;2022-08-01T11:09:47;26.20;94.80
40828;DHT22;26549;50.918;5.338;2022-08-01T11:12:18;26.30;93.80
40828;DHT22;26549;50.918;5.338;2022-08-01T11:17:45;26.00;94.40
40828;DHT22;26549;50.918;5.338;2022-08-01T11:20:16;26.00;94.20
40828;DHT22;26549;50.918;5.338;2022-08-01T11:33:49;25.90;93.70
40828;DHT22;26549;50.918;5.338;2022-08-01T11:39:11;26.20;93.10
40828;DHT22;26549;50.918;5.338;2022-08-01T11:41:38;26.50;93.10
40828;DHT22;26549;50.918;5.338;2022-08-01T11:46:57;26.70;91.40
40828;DHT22;26549;50.918;5.338;2022-08-01T11:54:28;26.60;91.50
40828;DHT22;26549;50.918;5.338;2022-08-01T11:57:02;26.70;91.30
40828;DHT22;26549;50.918;5.338;2022-08-01T11:59:46;26.60;91.20
40828;DHT22;26549;50.918;5.338;2022-08-01T12:02:29;26.80;91.30
40828;DHT22;26549;50.918;5.338;2022-08-01T12:05:01;27.00;91.30
40828;DHT22;26549;50.918;5.338;2022-08-01T12:07:31;26.90;90.80
40828;DHT22;26549;50.918;5.338;2022-08-01T12:12:33;27.00;91.10
40828;DHT22;26549;50.918;5.338;2022-08-01T12:15:06;27.00;90.50
40828;DHT22;26549;50.918;5.338;2022-08-01T12:17:34;26.90;90.10
40828;DHT22;26549;50.918;5.338;2022-08-01T12:20:02;26.90;90.40
40828;DHT22;26549;50.918;5.338;2022-08-01T12:22:29;27.10;90.50
40828;DHT22;26549;50.918;5.338;2022-08-01T12:24:55;26.90;90.50
40828;DHT22;26549;50.918;5.338;2022-08-01T12:27:30;26.70;91.00
40828;DHT22;26549;50.918;5.338;2022-08-01T12:29:59;26.90;90.80
40828;DHT22;26549;50.918;5.338;2022-08-01T12:32:32;26.90;90.40
40828;DHT22;26549;50.918;5.338;2022-08-01T12:37:28;26.80;90.70
40828;DHT22;26549;50.918;5.338;2022-08-01T12:39:56;26.70;90.60
40828;DHT22;26549;50.918;5.338;2022-08-01T12:42:22;26.50;90.90
40828;DHT22;26549;50.918;5.338;2022-08-01T12:44:53;26.70;90.70
40828;DHT22;26549;50.918;5.338;2022-08-01T12:47:23;26.70;90.90
40828;DHT22;26549;50.918;5.338;2022-08-01T12:49:50;26.90;90.40
40828;DHT22;26549;50.918;5.338;2022-08-01T12:52:17;27.00;90.70
40828;DHT22;26549;50.918;5.338;2022-08-01T12:55:13;27.00;90.60
40828;DHT22;26549;50.918;5.338;2022-08-01T12:57:42;27.20;90.00
40828;DHT22;26549;50.918;5.338;2022-08-01T13:00:26;27.30;89.80
40828;DHT22;26549;50.918;5.338;2022-08-01T13:03:09;27.40;88.30
40828;DHT22;26549;50.918;5.338;2022-08-01T13:05:56;27.50;86.30
40828;DHT22;26549;50.918;5.338;2022-08-01T13:08:29;27.00;87.10
40828;DHT22;26549;50.918;5.338;2022-08-01T13:11:11;27.30;88.10
40828;DHT22;26549;50.918;5.338;2022-08-01T13:16:10;27.00;87.30
40828;DHT22;26549;50.918;5.338;2022-08-01T13:18:36;27.00;86.50
40828;DHT22;26549;50.918;5.338;2022-08-01T13:24:07;27.00;88.80
40828;DHT22;26549;50.918;5.338;2022-08-01T13:26:46;26.90;88.10
40828;DHT22;26549;50.918;5.338;2022-08-01T13:29:19;26.70;88.50
40828;DHT22;26549;50.918;5.338;2022-08-01T13:31:48;26.70;89.00
40828;DHT22;26549;50.918;5.338;2022-08-01T13:34:17;26.70;89.10
40828;DHT22;26549;50.918;5.338;2022-08-01T13:36:44;26.70;87.70
40828;DHT22;26549;50.918;5.338;2022-08-01T13:39:12;26.70;88.10
40828;DHT22;26549;50.918;5.338;2022-08-01T13:42:00;26.90;88.00
40828;DHT22;26549;50.918;5.338;2022-08-01T13:44:26;26.90;88.40
40828;DHT22;26549;50.918;5.338;2022-08-01T13:46:54;26.60;89.30
40828;DHT22;26549;50.918;5.338;2022-08-01T13:49:21;26.90;88.70
40828;DHT22;26549;50.918;5.338;2022-08-01T13:51:50;27.20;88.00
40828;DHT22;26549;50.918;5.338;2022-08-01T13:54:18;26.70;88.20
40828;DHT22;26549;50.918;5.338;2022-08-01T13:56:45;26.50;89.00
40828;DHT22;26549;50.918;5.338;2022-08-01T13:59:14;26.50;89.90
40828;DHT22;26549;50.918;5.338;2022-08-01T14:01:40;26.50;88.70
40828;DHT22;26549;50.918;5.338;2022-08-01T14:04:08;26.40;89.10
40828;DHT22;26549;50.918;5.338;2022-08-01T14:06:37;26.50;89.70
40828;DHT22;26549;50.918;5.338;2022-08-01T14:09:04;26.50;90.10
40828;DHT22;26549;50.918;5.338;2022-08-01T14:11:34;26.50;90.00
40828;DHT22;26549;50.918;5.338;2022-08-01T14:14:00;26.50;90.20
40828;DHT22;26549;50.918;5.338;2022-08-01T14:16:26;26.60;90.00
40828;DHT22;26549;50.918;5.338;2022-08-01T14:19:00;26.60;89.20
40828;DHT22;26549;50.918;5.338;2022-08-01T14:21:29;26.30;90.20
40828;DHT22;26549;50.918;5.338;2022-08-01T14:23:57;26.30;90.50
40828;DHT22;26549;50.918;5.338;2022-08-01T14:26:26;26.50;90.60
40828;DHT22;26549;50.918;5.338;2022-08-01T14:28:51;26.20;90.80
40828;DHT22;26549;50.918;5.338;2022-08-01T14:31:17;26.20;91.00
40828;DHT22;26549;50.918;5.338;2022-08-01T14:33:43;26.20;91.00
40828;DHT22;26549;50.918;5.338;2022-08-01T14:36:12;26.40;91.00
40828;DHT22;26549;50.918;5.338;2022-08-01T14:38:41;26.10;90.70
40828;DHT22;26549;50.918;5.338;2022-08-01T14:41:07;26.00;91.30
40828;DHT22;26549;50.918;5.338;2022-08-01T14:43:33;26.20;91.10
40828;DHT22;26549;50.918;5.338;2022-08-01T14:46:02;26.30;91.20
40828;DHT22;26549;50.918;5.338;2022-08-01T14:48:31;26.50;90.70
40828;DHT22;26549;50.918;5.338;2022-08-01T14:50:58;26.60;91.20
40828;DHT22;26549;50.918;5.338;2022-08-01T14:53:25;26.80;90.00
40828;DHT22;26549;50.918;5.338;2022-08-01T14:55:51;26.90;89.50
40828;DHT22;26549;50.918;5.338;2022-08-01T14:58:17;27.00;89.60
40828;DHT22;26549;50.918;5.338;2022-08-01T15:00:42;27.00;88.90
40828;DHT22;26549;50.918;5.338;2022-08-01T15:03:10;26.80;89.20
40828;DHT22;26549;50.918;5.338;2022-08-01T15:05:37;26.50;89.80
40828;DHT22;26549;50.918;5.338;2022-08-01T15:08:03;26.50;90.00
40828;DHT22;26549;50.918;5.338;2022-08-01T15:10:33;26.70;90.30
40828;DHT22;26549;50.918;5.338;2022-08-01T15:13:01;26.90;90.10
40828;DHT22;26549;50.918;5.338;2022-08-01T15:15:33;26.90;90.20
40828;DHT22;26549;50.918;5.338;2022-08-01T15:18:00;26.90;90.50
40828;DHT22;26549;50.918;5.338;2022-08-01T15:20:28;26.80;89.90
40828;DHT22;26549;50.918;5.338;2022-08-01T15:22:58;27.00;90.10
40828;DHT22;26549;50.918;5.338;2022-08-01T15:25:26;26.90;90.30
40828;DHT22;26549;50.918;5.338;2022-08-01T15:27:53;27.00;90.30
40828;DHT22;26549;50.918;5.338;2022-08-01T15:30:23;26.90;89.40
40828;DHT22;26549;50.918;5.338;2022-08-01T15:32:50;27.00;90.10
40828;DHT22;26549;50.918;5.338;2022-08-01T15:35:19;26.90;90.20
40828;DHT22;26549;50.918;5.338;2022-08-01T15:37:48;27.10;90.00
40828;DHT22;26549;50.918;5.338;2022-08-01T15:40:16;27.10;89.70
40828;DHT22;26549;50.918;5.338;2022-08-01T15:42:44;27.10;89.00
40828;DHT22;26549;50.918;5.338;2022-08-01T15:45:11;27.30;87.30
40828;DHT22;26549;50.918;5.338;2022-08-01T15:47:41;27.30;86.50
40828;DHT22;26549;50.918;5.338;2022-08-01T15:50:13;27.30;86.90
40828;DHT22;26549;50.918;5.338;2022-08-01T15:52:39;27.30;84.90
40828;DHT22;26549;50.918;5.338;2022-08-01T15:55:11;27.60;83.50
40828;DHT22;26549;50.918;5.338;2022-08-01T15:57:36;27.60;84.50
40828;DHT22;26549;50.918;5.338;2022-08-01T16:00:04;27.50;85.10
40828;DHT22;26549;50.918;5.338;2022-08-01T16:02:33;27.50;85.90
40828;DHT22;26549;50.918;5.338;2022-08-01T16:05:02;27.80;85.20
40828;DHT22;26549;50.918;5.338;2022-08-01T16:07:31;28.00;83.80
40828;DHT22;26549;50.918;5.338;2022-08-01T16:09:56;27.90;83.20
40828;DHT22;26549;50.918;5.338;2022-08-01T16:12:22;27.90;84.20
40828;DHT22;26549;50.918;5.338;2022-08-01T16:14:55;27.80;85.60
40828;DHT22;26549;50.918;5.338;2022-08-01T16:17:24;27.70;85.90
40828;DHT22;26549;50.918;5.338;2022-08-01T16:19:51;27.60;85.80
40828;DHT22;26549;50.918;5.338;2022-08-01T16:22:30;27.10;87.20
40828;DHT22;26549;50.918;5.338;2022-08-01T16:24:58;26.70;88.10
40828;DHT22;26549;50.918;5.338;2022-08-01T16:27:24;26.70;88.20